Time;durP1;ratioP1;P1;durP2;ratioP2;P2;SDS_P1;SDS_P2;PMS_P1;PMS_P2;Temp;Humidity;BMP_temperature;BMP_pressure;BME280_temperature;BME280_humidity;BME280_pressure;Samples;Min_cycle;Max_cycle;Signal;HPM_P1;HPM_P2
2021/05/29 00:00:43;;;;;;;8.73;4.80;;;;;;;17.53;62.05;98701.00;4972803;28;20429;-66
2021/05/29 00:03:09;;;;;;;10.15;4.78;;;;;;;17.37;62.72;98693.38;4967180;28;20466;-65
2021/05/29 00:05:34;;;;;;;9.98;4.60;;;;;;;17.43;62.67;98695.25;4962241;28;20030;-65
2021/05/29 00:08:00;;;;;;;7.53;4.70;;;;;;;17.28;63.22;98703.97;4965653;28;20018;-66
2021/05/29 00:10:25;;;;;;;8.23;4.93;;;;;;;17.42;62.94;98702.31;4976429;28;20560;-67
2021/05/29 00:12:50;;;;;;;8.88;4.85;;;;;;;17.52;62.80;98704.63;4973704;28;20183;-65
2021/05/29 00:15:16;;;;;;;8.25;4.72;;;;;;;17.31;63.45;98696.75;4957871;28;20038;-65
2021/05/29 00:17:41;;;;;;;8.50;4.93;;;;;;;17.32;63.27;98701.78;4972754;28;20035;-66
2021/05/29 00:20:08;;;;;;;9.82;4.97;;;;;;;17.37;62.91;98696.00;4962566;28;20039;-68
2021/05/29 00:22:34;;;;;;;10.93;5.00;;;;;;;17.19;63.04;98644.66;4955467;28;20026;-65
2021/05/29 00:24:59;;;;;;;9.90;5.50;;;;;;;17.34;63.30;98688.47;4967053;28;20031;-64
2021/05/29 00:27:25;;;;;;;10.32;5.22;;;;;;;17.40;63.09;98679.84;4977502;28;20711;-67
2021/05/29 00:29:50;;;;;;;9.38;5.38;;;;;;;17.36;63.20;98661.03;4978719;28;20045;-67
2021/05/29 00:32:16;;;;;;;9.50;5.32;;;;;;;17.38;63.34;98676.59;4982044;28;20104;-64
2021/05/29 00:34:41;;;;;;;11.05;5.35;;;;;;;17.22;63.75;98682.91;4958605;28;20034;-64
2021/05/29 00:37:06;;;;;;;9.43;5.05;;;;;;;17.09;63.84;98668.63;4994810;28;20651;-64
2021/05/29 00:39:32;;;;;;;12.27;5.90;;;;;;;17.21;63.82;98668.13;4978578;28;20030;-66
2021/05/29 00:41:57;;;;;;;9.13;5.22;;;;;;;17.15;63.76;98663.63;4963682;28;20869;-60
2021/05/29 00:44:22;;;;;;;10.77;5.45;;;;;;;16.85;64.55;98642.69;4985634;28;20026;-67
2021/05/29 00:46:48;;;;;;;7.35;5.10;;;;;;;16.93;64.63;98653.06;4974925;28;20030;-68
2021/05/29 00:49:14;;;;;;;7.85;4.60;;;;;;;17.06;63.90;98655.84;4971611;28;20672;-66
2021/05/29 00:51:39;;;;;;;7.97;4.95;;;;;;;17.01;64.17;98662.66;4979603;28;20038;-63
2021/05/29 00:54:07;;;;;;;10.88;5.22;;;;;;;17.07;63.88;98654.84;4983191;28;20034;-67
2021/05/29 00:56:33;;;;;;;7.57;4.80;;;;;;;17.17;63.48;98659.81;4984015;28;21637;-66
2021/05/29 00:58:58;;;;;;;11.98;5.32;;;;;;;17.09;63.58;98652.84;4962679;28;20023;-66
2021/05/29 01:01:24;;;;;;;9.15;5.35;;;;;;;17.06;64.33;98655.84;4983762;28;20038;-65
2021/05/29 01:03:49;;;;;;;8.55;5.10;;;;;;;16.97;64.23;98650.91;4977317;28;20501;-64
2021/05/29 01:06:14;;;;;;;9.60;5.47;;;;;;;16.94;64.10;98659.97;4983379;28;20857;-65
2021/05/29 01:08:40;;;;;;;10.95;5.50;;;;;;;17.03;64.29;98658.84;4964422;28;20033;-63
2021/05/29 01:11:07;;;;;;;9.00;5.30;;;;;;;16.99;64.38;98652.31;4975215;28;20037;-63
2021/05/29 01:13:34;;;;;;;8.77;5.65;;;;;;;16.68;64.45;98621.88;4957013;28;20188;-67
2021/05/29 01:16:15;;;;;;;8.93;5.88;;;;;;;16.94;64.43;98656.50;4963554;28;20129;-69
2021/05/29 01:18:40;;;;;;;10.88;5.78;;;;;;;16.66;65.64;98657.97;4975718;28;20022;-62
2021/05/29 01:21:06;;;;;;;8.43;6.10;;;;;;;16.59;65.10;98630.84;4958830;28;20092;-61
2021/05/29 01:23:31;;;;;;;10.13;6.18;;;;;;;16.78;65.03;98662.78;4981780;28;20031;-63
2021/05/29 01:25:57;;;;;;;10.23;6.18;;;;;;;16.89;65.38;98660.50;4982128;28;20038;-64
2021/05/29 01:28:26;;;;;;;10.52;6.45;;;;;;;16.90;65.14;98661.31;4950299;28;20365;-67
2021/05/29 01:31:01;;;;;;;13.23;7.20;;;;;;;16.94;65.11;98664.38;4974530;28;20034;-67
2021/05/29 01:33:29;;;;;;;12.05;7.18;;;;;;;16.60;64.77;98619.34;4981340;28;20517;-63
2021/05/29 01:35:59;;;;;;;10.48;7.05;;;;;;;16.85;65.00;98666.31;4964708;28;20042;-66
2021/05/29 01:38:25;;;;;;;11.32;7.13;;;;;;;16.92;64.51;98654.09;4981944;28;20532;-60
2021/05/29 01:40:50;;;;;;;10.85;6.55;;;;;;;17.01;64.83;98657.41;4963006;28;20029;-63
2021/05/29 01:43:16;;;;;;;11.75;6.28;;;;;;;16.84;64.82;98626.09;4971582;28;20035;-68
2021/05/29 01:45:42;;;;;;;10.13;6.63;;;;;;;16.89;64.90;98615.06;4956497;28;20646;-68
2021/05/29 01:48:08;;;;;;;10.23;5.88;;;;;;;17.07;64.75;98649.59;4978491;28;20045;-66
2021/05/29 01:50:46;;;;;;;10.57;5.82;;;;;;;17.03;65.04;98656.22;4980722;28;20026;-65
2021/05/29 01:53:14;;;;;;;9.52;6.15;;;;;;;17.01;65.76;98652.97;4980479;28;20026;-66
2021/05/29 01:55:39;;;;;;;8.90;6.03;;;;;;;16.72;66.18;98649.38;4978597;28;20042;-65
2021/05/29 01:58:05;;;;;;;10.18;5.65;;;;;;;16.79;66.01;98644.19;4980842;28;20162;-68
2021/05/29 02:00:30;;;;;;;9.63;6.03;;;;;;;16.71;66.02;98641.69;4962566;28;20089;-62
2021/05/29 02:02:57;;;;;;;11.30;5.78;;;;;;;16.80;66.08;98639.75;4978157;28;20079;-66
2021/05/29 02:05:30;;;;;;;8.70;5.32;;;;;;;16.71;66.40;98636.44;4977413;28;20209;-63
2021/05/29 02:08:04;;;;;;;10.40;5.95;;;;;;;16.42;66.51;98600.53;4979399;28;20069;-64
2021/05/29 02:10:32;;;;;;;9.68;5.60;;;;;;;16.74;66.43;98628.19;4961772;28;20042;-68
2021/05/29 02:13:00;;;;;;;9.13;4.82;;;;;;;16.86;65.53;98637.22;4978171;28;20104;-66
2021/05/29 02:15:28;;;;;;;9.63;5.65;;;;;;;16.70;65.43;98600.66;4968011;28;20030;-68
2021/05/29 02:17:56;;;;;;;7.15;4.63;;;;;;;16.99;65.06;98639.19;4979345;28;20033;-67
2021/05/29 02:20:35;;;;;;;9.85;5.60;;;;;;;17.04;65.23;98641.28;4977417;28;20026;-65
2021/05/29 02:23:01;;;;;;;9.52;5.55;;;;;;;16.99;64.95;98636.56;4987367;28;20142;-66
2021/05/29 02:25:26;;;;;;;7.75;4.95;;;;;;;16.92;65.09;98627.81;4974987;28;20034;-67
2021/05/29 02:27:51;;;;;;;9.18;5.35;;;;;;;17.04;64.92;98628.94;4975533;28;20022;-66
2021/05/29 02:30:17;;;;;;;7.90;4.93;;;;;;;16.72;65.01;98588.19;4981247;28;20088;-69
2021/05/29 02:32:42;;;;;;;6.60;4.28;;;;;;;16.88;64.46;98629.16;4961322;28;20038;-68
2021/05/29 02:35:08;;;;;;;7.30;4.43;;;;;;;17.00;64.26;98627.69;4980914;28;20430;-67
2021/05/29 02:37:34;;;;;;;6.43;4.40;;;;;;;16.69;63.87;98570.16;4964799;28;20034;-68
2021/05/29 02:39:59;;;;;;;11.43;4.70;;;;;;;16.90;64.01;98593.03;4977301;28;20044;-60
2021/05/29 02:42:25;;;;;;;8.65;4.55;;;;;;;16.91;64.90;98615.69;4960139;28;20590;-66
2021/05/29 02:44:50;;;;;;;10.18;4.07;;;;;;;16.85;64.47;98609.34;4980239;28;20045;-67
2021/05/29 02:47:15;;;;;;;7.30;4.50;;;;;;;16.72;65.09;98580.31;4981957;28;20755;-66
2021/05/29 02:49:41;;;;;;;8.57;4.78;;;;;;;16.93;65.22;98620.75;4973909;28;20031;-66
2021/05/29 02:52:07;;;;;;;9.30;4.82;;;;;;;16.93;64.82;98626.81;4973587;28;20045;-64
2021/05/29 02:54:34;;;;;;;8.07;5.15;;;;;;;16.94;65.22;98614.47;4976811;28;20064;-66
2021/05/29 02:56:59;;;;;;;7.80;4.85;;;;;;;16.79;66.59;98609.25;5010207;28;20944;-68
2021/05/29 02:59:24;;;;;;;11.77;5.20;;;;;;;16.84;66.37;98612.16;4978527;28;20125;-64
2021/05/29 03:01:50;;;;;;;7.93;4.95;;;;;;;16.86;67.34;98625.91;4973070;28;20035;-62
2021/05/29 03:04:15;;;;;;;9.27;5.20;;;;;;;16.80;68.47;98619.56;4968343;28;20080;-65
2021/05/29 03:06:41;;;;;;;9.52;6.63;;;;;;;16.72;69.07;98620.50;4978232;28;20038;-65
2021/05/29 03:09:07;;;;;;;62.08;58.78;;;;;;;16.65;69.54;98616.16;4974552;28;20101;-65
2021/05/29 03:11:40;;;;;;;260.65;241.77;;;;;;;16.76;69.18;98607.00;4976391;28;20038;-66
2021/05/29 03:14:05;;;;;;;56.58;53.50;;;;;;;16.71;68.18;98616.22;4981064;28;20030;-64
2021/05/29 03:16:31;;;;;;;167.32;157.65;;;;;;;16.73;67.98;98605.53;4975533;28;20402;-68
2021/05/29 03:18:56;;;;;;;386.38;352.95;;;;;;;16.61;68.86;98612.25;4942585;28;20033;-66
2021/05/29 03:21:22;;;;;;;907.17;574.13;;;;;;;16.50;69.46;98618.78;4973060;28;20026;-66
2021/05/29 03:23:47;;;;;;;1999.90;999.90;;;;;;;16.39;69.21;98604.34;4957770;28;20586;-65
2021/05/29 03:26:13;;;;;;;1999.90;999.90;;;;;;;16.50;69.60;98619.63;4976633;28;20101;-65
2021/05/29 03:28:38;;;;;;;1999.90;999.90;;;;;;;16.57;68.53;98616.25;4973768;28;20031;-67
2021/05/29 03:31:04;;;;;;;1999.90;999.90;;;;;;;16.46;68.87;98625.41;4978819;28;20164;-66
2021/05/29 03:33:29;;;;;;;1999.90;999.90;;;;;;;16.42;68.97;98624.94;4967223;28;20631;-62
2021/05/29 03:35:55;;;;;;;1999.90;999.90;;;;;;;16.32;69.18;98617.38;4966607;28;20031;-68
2021/05/29 03:38:20;;;;;;;1999.90;999.90;;;;;;;16.39;69.12;98625.34;4976562;28;21609;-67
2021/05/29 03:40:46;;;;;;;1999.90;999.90;;;;;;;16.37;68.90;98618.63;4979132;28;20139;-64
2021/05/29 03:43:13;;;;;;;1999.90;999.90;;;;;;;16.50;68.67;98624.88;4963134;28;20034;-67
2021/05/29 03:45:38;;;;;;;1999.90;999.90;;;;;;;16.32;68.74;98601.63;4979061;28;20037;-65
2021/05/29 03:48:04;;;;;;;446.98;308.15;;;;;;;16.46;69.29;98615.72;4962818;28;20035;-68
2021/05/29 03:50:30;;;;;;;534.42;350.20;;;;;;;16.38;68.67;98602.69;4967042;28;20531;-67
2021/05/29 03:52:55;;;;;;;565.42;455.27;;;;;;;16.61;68.75;98631.47;4957835;28;20402;-67
2021/05/29 03:55:21;;;;;;;508.63;446.25;;;;;;;16.29;69.18;98596.72;4978756;28;20108;-64
2021/05/29 03:57:47;;;;;;;457.73;413.88;;;;;;;16.48;68.96;98620.78;4984691;28;20422;-64
2021/05/29 04:00:16;;;;;;;371.95;337.83;;;;;;;16.63;69.07;98632.09;4962761;28;20033;-65
2021/05/29 04:02:42;;;;;;;314.13;284.45;;;;;;;16.44;69.83;98636.06;4985909;28;20027;-65
2021/05/29 04:05:08;;;;;;;264.45;242.38;;;;;;;16.40;70.06;98634.00;4954508;28;20461;-65
2021/05/29 04:07:34;;;;;;;128.15;120.75;;;;;;;16.45;69.53;98629.03;4979260;28;20096;-67
2021/05/29 04:09:59;;;;;;;161.05;149.38;;;;;;;16.39;69.93;98629.75;4966552;28;20212;-65
2021/05/29 04:12:25;;;;;;;82.47;77.55;;;;;;;16.43;69.51;98625.78;4980614;28;20030;-67
2021/05/29 04:14:50;;;;;;;42.53;39.80;;;;;;;16.21;69.65;98582.88;4976028;28;20411;-65
2021/05/29 04:17:16;;;;;;;15.95;14.55;;;;;;;16.45;70.18;98626.41;4980545;28;20034;-67
2021/05/29 04:19:42;;;;;;;11.55;10.40;;;;;;;16.12;69.92;98588.25;4977026;28;20053;-65
2021/05/29 04:22:07;;;;;;;7.93;5.70;;;;;;;16.50;69.61;98637.16;4973493;28;20038;-65
2021/05/29 04:24:33;;;;;;;11.00;6.40;;;;;;;16.38;69.46;98625.50;4989600;28;20033;-67
2021/05/29 04:26:58;;;;;;;9.52;5.65;;;;;;;16.43;69.40;98618.72;4982798;28;20038;-64
2021/05/29 04:29:23;;;;;;;9.13;5.82;;;;;;;16.44;69.40;98633.44;4978413;28;20807;-68
2021/05/29 04:31:49;;;;;;;9.95;5.55;;;;;;;16.41;69.13;98614.63;4977010;28;20031;-66
2021/05/29 04:34:14;;;;;;;11.05;5.57;;;;;;;16.49;69.20;98625.03;4965285;28;20034;-64
2021/05/29 04:36:40;;;;;;;9.63;5.60;;;;;;;16.27;69.12;98572.50;4959193;28;20026;-65
2021/05/29 04:39:05;;;;;;;8.52;5.53;;;;;;;16.58;68.94;98623.16;4977592;28;20053;-63
2021/05/29 04:41:31;;;;;;;9.48;5.55;;;;;;;16.61;69.07;98620.97;4980682;28;20043;-65
2021/05/29 04:43:56;;;;;;;7.93;5.32;;;;;;;16.59;68.95;98622.97;4981713;28;20369;-66
2021/05/29 04:46:22;;;;;;;11.98;5.55;;;;;;;16.63;68.68;98611.09;4978529;28;20113;-67
2021/05/29 04:48:47;;;;;;;9.38;5.95;;;;;;;16.48;69.27;98605.03;4996009;28;20031;-66
2021/05/29 04:51:13;;;;;;;7.40;4.93;;;;;;;16.62;69.16;98617.34;4976897;28;20034;-67
2021/05/29 04:53:43;;;;;;;9.77;5.32;;;;;;;16.60;69.27;98621.94;4961876;28;20034;-67
2021/05/29 04:56:10;;;;;;;8.07;5.20;;;;;;;16.53;68.83;98606.13;4981830;28;20630;-65
2021/05/29 04:58:37;;;;;;;9.60;5.43;;;;;;;16.55;69.15;98616.44;4967672;28;20026;-65
2021/05/29 05:01:04;;;;;;;8.82;5.38;;;;;;;16.46;69.48;98613.09;4979418;28;20405;-67
2021/05/29 05:03:30;;;;;;;9.90;5.43;;;;;;;16.55;69.69;98619.06;4982045;28;20040;-67
2021/05/29 05:05:55;;;;;;;8.27;5.78;;;;;;;16.65;69.46;98624.03;4964488;28;20034;-67
2021/05/29 05:08:21;;;;;;;9.65;5.60;;;;;;;16.67;69.51;98622.84;4974544;28;20073;-67
2021/05/29 05:10:46;;;;;;;9.20;5.35;;;;;;;16.46;69.10;98588.66;4978444;28;20481;-68
2021/05/29 05:13:12;;;;;;;8.40;5.30;;;;;;;16.63;69.20;98616.34;4965574;28;20048;-64
2021/05/29 05:15:37;;;;;;;7.93;5.18;;;;;;;16.68;68.60;98608.75;4979860;28;20138;-66
2021/05/29 05:18:07;;;;;;;10.85;5.10;;;;;;;16.73;68.92;98608.16;4961940;28;20126;-64
2021/05/29 05:20:32;;;;;;;9.90;5.60;;;;;;;16.80;68.89;98614.31;4963470;28;20136;-65
2021/05/29 05:22:57;;;;;;;7.70;4.88;;;;;;;16.85;68.63;98609.34;4983442;28;20018;-67
2021/05/29 05:25:23;;;;;;;8.40;5.05;;;;;;;16.77;68.78;98598.91;4979341;28;20054;-65
2021/05/29 05:27:48;;;;;;;8.43;5.13;;;;;;;16.70;69.21;98601.50;4957155;28;20539;-65
2021/05/29 05:30:14;;;;;;;9.10;5.30;;;;;;;16.75;69.32;98600.13;4982320;28;20079;-66
2021/05/29 05:32:42;;;;;;;8.95;5.43;;;;;;;16.64;69.48;98586.47;4971865;28;20046;-66
2021/05/29 05:35:10;;;;;;;9.73;5.22;;;;;;;16.71;69.17;98594.41;4960493;28;20038;-65
2021/05/29 05:37:36;;;;;;;10.70;5.35;;;;;;;16.75;69.42;98608.00;4992789;28;20027;-64
2021/05/29 05:40:03;;;;;;;9.32;4.93;;;;;;;16.69;69.39;98610.34;4976607;28;20034;-66
2021/05/29 05:42:29;;;;;;;9.13;4.65;;;;;;;16.78;69.12;98621.56;4976803;28;20026;-67
2021/05/29 05:44:55;;;;;;;9.45;4.85;;;;;;;16.76;69.40;98617.50;4975978;28;20035;-65
2021/05/29 05:47:20;;;;;;;8.10;5.30;;;;;;;16.94;68.96;98620.56;4972613;28;20034;-65
2021/05/29 05:49:46;;;;;;;9.25;5.32;;;;;;;16.90;69.40;98624.53;4980185;28;20105;-65
2021/05/29 05:52:11;;;;;;;10.75;5.40;;;;;;;16.90;69.06;98611.41;4975364;28;20030;-63
2021/05/29 05:54:37;;;;;;;7.80;5.60;;;;;;;16.99;69.69;98620.81;4985353;28;20489;-67
2021/05/29 05:57:02;;;;;;;9.20;5.53;;;;;;;16.80;70.06;98587.25;4972481;28;20109;-67
2021/05/29 05:59:28;;;;;;;9.38;5.47;;;;;;;16.83;70.18;98582.47;4964118;28;20655;-66
2021/05/29 06:01:53;;;;;;;9.65;5.43;;;;;;;16.98;69.65;98616.56;4980550;28;20477;-66
2021/05/29 06:04:19;;;;;;;9.88;5.57;;;;;;;16.78;69.36;98574.31;4974417;28;20038;-66
2021/05/29 06:06:45;;;;;;;10.40;5.68;;;;;;;17.21;69.63;98624.28;4980122;28;20080;-66
2021/05/29 06:09:10;;;;;;;8.13;5.40;;;;;;;17.13;69.04;98619.16;4955887;28;20174;-67
2021/05/29 06:11:36;;;;;;;9.65;5.35;;;;;;;17.17;68.82;98615.13;4979043;28;20113;-66
2021/05/29 06:19:21;;;;;;;8.88;5.68;;;;;;;17.23;68.38;98618.81;4986026;28;20058;-62
2021/05/29 06:21:49;;;;;;;7.32;5.88;;;;;;;17.25;68.34;98627.34;4987764;28;20054;-65
2021/05/29 06:24:27;;;;;;;10.75;6.03;;;;;;;17.29;68.10;98620.72;4976864;28;20034;-64
2021/05/29 06:26:53;;;;;;;9.95;5.80;;;;;;;17.34;67.62;98620.97;4974783;28;20034;-64
2021/05/29 06:29:19;;;;;;;8.90;5.80;;;;;;;17.32;67.83;98630.84;4988582;28;20054;-62
2021/05/29 06:31:46;;;;;;;10.27;6.00;;;;;;;17.22;68.20;98628.53;4965421;28;20116;-65
2021/05/29 06:34:11;;;;;;;8.90;5.47;;;;;;;17.15;68.35;98624.22;4967463;28;20113;-65
2021/05/29 06:36:37;;;;;;;9.98;6.10;;;;;;;17.15;68.60;98613.72;4968979;28;20142;-63
2021/05/29 06:39:03;;;;;;;11.10;5.60;;;;;;;17.36;68.62;98624.22;4974612;28;20064;-65
2021/05/29 06:41:29;;;;;;;9.13;5.82;;;;;;;17.42;68.18;98628.72;4977415;28;20034;-67
2021/05/29 06:43:54;;;;;;;10.43;5.72;;;;;;;17.53;67.83;98630.03;4979784;28;20038;-65
2021/05/29 06:46:20;;;;;;;11.10;6.40;;;;;;;17.60;67.27;98623.03;4974845;28;20034;-65
2021/05/29 06:48:45;;;;;;;9.05;5.32;;;;;;;17.85;66.83;98639.22;4976589;28;20034;-66
2021/05/29 06:51:16;;;;;;;8.95;6.20;;;;;;;17.58;65.67;98603.19;4979185;28;20030;-64
2021/05/29 06:53:49;;;;;;;8.52;5.57;;;;;;;17.90;66.19;98637.84;4974655;28;20113;-65
2021/05/29 06:58:58;;;;;;;10.18;5.80;;;;;;;17.92;65.39;98631.38;4969366;28;20620;-64
2021/05/29 07:01:25;;;;;;;9.02;5.88;;;;;;;18.03;64.65;98638.75;4972864;28;20117;-68
2021/05/29 07:03:52;;;;;;;10.02;5.85;;;;;;;18.12;64.52;98641.22;4961155;28;20861;-65
2021/05/29 07:06:18;;;;;;;9.40;5.97;;;;;;;18.03;64.44;98630.88;4969562;28;20057;-64
2021/05/29 07:08:43;;;;;;;11.10;5.97;;;;;;;18.03;64.49;98643.19;4970983;28;20517;-68
2021/05/29 07:11:09;;;;;;;9.45;5.63;;;;;;;18.11;63.78;98597.50;4960779;28;20039;-64
2021/05/29 07:13:35;;;;;;;9.07;6.20;;;;;;;18.39;63.42;98629.84;4985734;28;20442;-64
2021/05/29 07:16:01;;;;;;;9.32;6.15;;;;;;;18.55;63.92;98639.25;4987541;28;20050;-61
2021/05/29 07:18:32;;;;;;;8.32;5.57;;;;;;;18.61;63.57;98641.09;4963368;28;20107;-65
2021/05/29 07:20:59;;;;;;;7.55;5.43;;;;;;;18.77;63.50;98641.78;4956987;28;20027;-64
2021/05/29 07:23:25;;;;;;;10.80;5.90;;;;;;;18.72;63.25;98642.34;5001379;28;20030;-62
2021/05/29 07:25:50;;;;;;;10.05;5.53;;;;;;;18.83;62.31;98633.91;4970252;28;20034;-60
2021/05/29 07:28:16;;;;;;;9.05;5.90;;;;;;;18.86;62.53;98640.63;4950697;28;20030;-63
2021/05/29 07:30:42;;;;;;;8.43;6.00;;;;;;;18.88;62.62;98635.16;4959802;28;20050;-63
2021/05/29 07:33:09;;;;;;;9.18;6.40;;;;;;;18.90;63.01;98638.41;4979679;28;20038;-63
2021/05/29 07:35:35;;;;;;;11.80;6.30;;;;;;;18.83;63.06;98622.56;4986944;28;20027;-65
2021/05/29 07:38:00;;;;;;;9.13;6.35;;;;;;;19.05;62.60;98627.72;4963969;28;20049;-66
2021/05/29 07:40:27;;;;;;;10.15;5.93;;;;;;;19.27;62.10;98620.44;4964623;28;20030;-63
2021/05/29 07:42:52;;;;;;;9.73;5.57;;;;;;;19.14;62.11;98629.16;4975004;28;20518;-64
2021/05/29 07:45:18;;;;;;;9.90;5.88;;;;;;;19.30;62.04;98620.06;4970651;28;20676;-62
2021/05/29 07:47:43;;;;;;;10.20;6.40;;;;;;;19.78;60.56;98617.25;4973083;28;20045;-64
2021/05/29 07:50:10;;;;;;;10.07;5.53;;;;;;;20.02;59.35;98620.28;4976857;28;20033;-67
2021/05/29 07:52:36;;;;;;;8.25;5.60;;;;;;;20.44;55.72;98610.22;4971903;28;20096;-65
2021/05/29 07:55:03;;;;;;;50.70;47.70;;;;;;;20.87;53.37;98615.75;4966220;28;20751;-65
2021/05/29 07:57:28;;;;;;;1999.90;999.90;;;;;;;21.13;50.19;98606.06;4970814;28;20505;-66
2021/05/29 07:59:54;;;;;;;755.67;379.35;;;;;;;21.24;48.18;98578.13;4970525;28;20019;-67
2021/05/29 08:02:19;;;;;;;183.63;146.90;;;;;;;21.60;45.34;98609.22;4972683;28;20046;-62
2021/05/29 08:04:45;;;;;;;9.07;5.50;;;;;;;21.68;43.23;98608.97;4966512;28;20031;-66
2021/05/29 08:07:10;;;;;;;9.07;3.30;;;;;;;21.77;43.53;98604.19;4979036;28;20088;-66
2021/05/29 08:09:36;;;;;;;7.03;3.17;;;;;;;22.01;43.53;98601.72;4960281;28;20707;-62
2021/05/29 08:12:01;;;;;;;7.90;3.05;;;;;;;22.19;42.23;98607.03;4977861;28;20168;-66
2021/05/29 08:14:27;;;;;;;8.93;2.80;;;;;;;22.23;41.50;98580.91;4977123;28;20322;-65
2021/05/29 08:16:52;;;;;;;6.45;2.60;;;;;;;22.46;40.26;98610.22;4957260;28;20081;-65
2021/05/29 08:19:18;;;;;;;7.28;2.65;;;;;;;22.73;39.99;98601.97;4970453;28;20030;-64
2021/05/29 08:21:51;;;;;;;6.65;2.70;;;;;;;23.02;40.12;98596.88;4979348;28;20042;-66
2021/05/29 08:24:17;;;;;;;7.38;2.90;;;;;;;23.21;40.12;98592.34;4974412;28;20039;-66
2021/05/29 08:26:43;;;;;;;7.28;3.00;;;;;;;23.15;40.27;98596.72;4982004;28;20037;-65
2021/05/29 08:29:14;;;;;;;7.20;3.65;;;;;;;23.04;40.72;98594.84;4988352;28;20068;-65
2021/05/29 08:31:42;;;;;;;7.68;3.90;;;;;;;23.22;40.56;98584.16;4978110;28;20100;-65
2021/05/29 08:34:09;;;;;;;11.05;3.88;;;;;;;23.48;40.41;98587.44;4977267;28;20022;-66
2021/05/29 08:36:35;;;;;;;7.32;3.00;;;;;;;23.38;40.13;98589.84;4975382;28;20544;-62
2021/05/29 08:39:00;;;;;;;7.18;3.58;;;;;;;23.16;39.44;98541.81;4974446;28;20030;-63
2021/05/29 08:41:26;;;;;;;10.50;3.72;;;;;;;23.36;39.14;98573.34;4979995;28;20417;-65
2021/05/29 08:43:51;;;;;;;9.13;3.47;;;;;;;23.66;39.03;98585.72;4958530;28;20084;-62
2021/05/29 08:46:17;;;;;;;8.15;3.30;;;;;;;23.73;38.74;98583.75;4979072;28;20038;-62
2021/05/29 08:48:42;;;;;;;7.88;3.13;;;;;;;23.65;38.26;98547.75;4976457;28;20072;-63
2021/05/29 08:51:15;;;;;;;7.10;2.95;;;;;;;23.99;37.86;98582.50;4970605;28;20034;-63
2021/05/29 08:53:46;;;;;;;7.45;3.65;;;;;;;24.03;38.02;98570.38;4952493;28;20027;-64
2021/05/29 08:56:12;;;;;;;7.57;3.78;;;;;;;24.50;37.66;98586.22;4972671;28;20037;-64
2021/05/29 08:58:38;;;;;;;8.02;3.40;;;;;;;24.80;37.00;98571.91;4962436;28;20488;-63
2021/05/29 09:01:04;;;;;;;9.70;3.92;;;;;;;24.58;36.66;98574.44;4961203;28;20412;-62
2021/05/29 09:03:48;;;;;;;9.93;3.90;;;;;;;24.68;37.51;98563.19;4978164;28;20572;-64
2021/05/29 09:06:38;;;;;;;8.32;3.13;;;;;;;24.50;37.95;98569.47;4977797;28;20408;-62
2021/05/29 09:09:12;;;;;;;7.53;3.05;;;;;;;24.94;36.32;98567.91;4960478;28;20556;-62
2021/05/29 09:11:46;;;;;;;6.32;2.70;;;;;;;25.22;36.41;98574.22;4958339;28;20037;-63
2021/05/29 09:14:20;;;;;;;10.13;3.50;;;;;;;24.77;35.47;98566.25;4981566;28;20109;-63
2021/05/29 09:17:19;;;;;;;5.85;2.50;;;;;;;24.70;34.60;98561.13;4975387;28;20034;-63
2021/05/29 09:20:05;;;;;;;8.80;2.88;;;;;;;24.90;33.97;98576.63;4947655;28;20042;-63
2021/05/29 09:22:39;;;;;;;6.10;2.63;;;;;;;25.17;33.57;98571.47;4980465;28;20065;-64
2021/05/29 09:25:12;;;;;;;7.95;2.70;;;;;;;25.24;33.78;98566.03;4964083;28;20161;-63
2021/05/29 09:28:00;;;;;;;8.02;3.05;;;;;;;25.29;34.01;98547.50;4976368;28;21193;-63
2021/05/29 09:30:48;;;;;;;7.22;3.35;;;;;;;25.31;34.58;98567.50;4996668;28;20030;-63
2021/05/29 09:33:19;;;;;;;7.05;3.60;;;;;;;25.31;34.13;98567.50;4978947;28;20120;-64
2021/05/29 09:35:53;;;;;;;7.28;3.80;;;;;;;25.68;33.97;98569.66;4978414;28;20034;-63
2021/05/29 09:38:18;;;;;;;6.80;3.10;;;;;;;25.25;35.21;98560.50;4960234;28;20086;-63
2021/05/29 09:40:54;;;;;;;8.57;3.63;;;;;;;25.43;35.08;98558.66;4973647;28;20605;-64
2021/05/29 09:43:21;;;;;;;7.90;4.07;;;;;;;25.13;35.31;98565.88;4977752;28;20073;-65
2021/05/29 09:46:05;;;;;;;8.88;4.07;;;;;;;25.03;34.98;98549.72;4964726;28;20044;-65
2021/05/29 09:48:32;;;;;;;8.55;3.35;;;;;;;25.13;35.74;98565.03;4981783;28;20393;-61
2021/05/29 09:51:07;;;;;;;7.78;3.28;;;;;;;25.19;35.69;98564.09;4982436;28;20033;-62
2021/05/29 09:53:36;;;;;;;7.07;3.33;;;;;;;24.94;35.71;98559.94;4980691;28;20034;-62
2021/05/29 09:56:02;;;;;;;8.07;4.18;;;;;;;24.29;36.65;98561.06;4980417;28;20040;-64
2021/05/29 09:58:52;;;;;;;8.38;3.90;;;;;;;24.34;37.48;98563.84;4947952;28;20101;-64
2021/05/29 10:01:36;;;;;;;;;;;;;;;23.74;37.90;98559.63;4969359;28;20088;-64
2021/05/29 10:04:05;;;;;;;7.22;3.90;;;;;;;23.49;38.26;98545.78;4972821;28;19918;-64
2021/05/29 10:06:31;;;;;;;10.07;4.05;;;;;;;23.39;39.51;98554.31;4962431;28;20201;-64
2021/05/29 10:08:56;;;;;;;9.55;4.32;;;;;;;22.99;39.29;98517.78;4983818;28;20030;-63
2021/05/29 10:11:22;;;;;;;8.68;4.47;;;;;;;23.08;40.08;98553.56;4975271;28;20072;-63
2021/05/29 10:13:48;;;;;;;8.52;4.00;;;;;;;23.28;38.83;98541.84;4963221;28;20425;-64
2021/05/29 10:16:15;;;;;;;8.77;4.30;;;;;;;23.22;39.87;98532.97;4973839;28;20034;-64
2021/05/29 10:18:48;;;;;;;8.15;3.70;;;;;;;23.17;39.86;98538.16;4976514;28;20040;-63
2021/05/29 10:21:14;;;;;;;9.02;4.53;;;;;;;23.27;41.16;98549.00;4975044;28;20042;-66
2021/05/29 10:23:43;;;;;;;13.05;4.88;;;;;;;23.13;39.84;98537.81;4973862;28;20105;-65
2021/05/29 10:26:09;;;;;;;8.32;5.13;;;;;;;23.01;40.19;98537.72;4975884;28;20619;-65
2021/05/29 10:28:35;;;;;;;9.70;5.38;;;;;;;22.95;40.58;98533.34;4975922;28;20142;-64
2021/05/29 10:31:00;;;;;;;12.13;5.45;;;;;;;23.10;40.85;98534.78;4961149;28;20034;-64
2021/05/29 10:33:26;;;;;;;9.98;5.07;;;;;;;23.16;40.52;98533.88;4976449;28;20034;-64
2021/05/29 10:35:51;;;;;;;8.80;5.40;;;;;;;23.14;39.99;98530.66;4978062;28;20689;-64
2021/05/29 10:38:19;;;;;;;10.32;5.68;;;;;;;23.10;40.43;98526.84;4973297;28;20037;-64
2021/05/29 10:40:48;;;;;;;11.70;6.97;;;;;;;23.12;40.54;98530.06;4961317;28;20049;-63
2021/05/29 10:43:15;;;;;;;11.05;6.05;;;;;;;23.15;40.33;98519.81;4987698;28;20037;-65
2021/05/29 10:45:50;;;;;;;10.20;6.50;;;;;;;23.06;40.37;98521.19;4957332;28;20046;-62
2021/05/29 10:48:16;;;;;;;11.63;5.47;;;;;;;23.03;40.52;98517.09;4978644;28;20923;-63
2021/05/29 10:53:47;;;;;;;10.50;5.97;;;;;;;22.91;40.59;98479.16;4978618;28;20042;-64
2021/05/29 10:56:15;;;;;;;11.75;6.13;;;;;;;23.21;40.77;98504.81;4980386;28;20106;-65
2021/05/29 10:59:04;;;;;;;12.60;7.40;;;;;;;23.22;39.55;98509.91;4976594;28;20117;-62
2021/05/29 11:01:33;;;;;;;12.15;6.35;;;;;;;23.27;40.14;98503.09;4977522;28;20511;-64
2021/05/29 11:04:21;;;;;;;11.63;5.40;;;;;;;23.45;40.46;98504.84;4960393;28;20042;-62
2021/05/29 11:06:57;;;;;;;9.60;5.63;;;;;;;23.38;40.09;98473.09;4978667;28;20037;-64
2021/05/29 11:09:26;;;;;;;12.95;6.60;;;;;;;23.63;39.68;98498.59;4974432;28;20393;-63
2021/05/29 11:11:59;;;;;;;8.88;5.93;;;;;;;23.41;38.90;98499.19;4976002;28;20105;-67
2021/05/29 11:14:27;;;;;;;9.07;5.47;;;;;;;23.41;39.24;98492.03;5002636;28;20030;-65
2021/05/29 11:16:53;;;;;;;8.82;4.70;;;;;;;23.41;40.45;98494.69;4958322;28;20117;-65
2021/05/29 11:19:21;;;;;;;9.68;5.35;;;;;;;23.53;38.83;98483.25;4974979;28;20073;-66
2021/05/29 11:22:17;;;;;;;10.20;5.78;;;;;;;23.53;39.23;98497.34;4973166;28;20394;-65
2021/05/29 11:24:49;;;;;;;10.48;4.97;;;;;;;23.54;39.77;98493.63;4992075;28;20096;-68
2021/05/29 11:27:15;;;;;;;9.63;5.07;;;;;;;23.68;39.26;98486.25;4976049;28;20034;-66
2021/05/29 11:30:01;;;;;;;11.10;5.75;;;;;;;23.70;38.61;98478.06;4975717;28;20039;-66
2021/05/29 11:35:36;;;;;;;8.32;4.35;;;;;;;23.92;38.77;98470.31;4976019;28;20088;-66
2021/05/29 11:38:08;;;;;;;9.43;4.97;;;;;;;23.93;39.00;98462.13;4978305;28;20069;-61
2021/05/29 11:40:43;;;;;;;9.07;5.03;;;;;;;24.11;37.80;98473.59;4969998;28;20039;-64
2021/05/29 11:43:10;;;;;;;7.93;3.92;;;;;;;24.14;38.53;98468.63;4978159;28;20121;-67